createdAt,value
2024-01-22T00:00:55.086Z,23.03
2024-01-22T00:01:55.033Z,23.05
2024-01-22T00:02:55.143Z,23.00
2024-01-22T00:03:55.158Z,23.06
2024-01-22T00:04:55.230Z,23.03
2024-01-22T00:05:55.383Z,23.03
2024-01-22T00:06:55.363Z,22.97
2024-01-22T00:07:55.369Z,23.03
2024-01-22T00:08:55.457Z,23.00
2024-01-22T00:09:55.511Z,23.06
2024-01-22T00:10:55.555Z,22.97
2024-01-22T00:11:55.675Z,22.99
2024-01-22T00:12:55.718Z,22.88
2024-01-22T00:13:55.775Z,22.97
2024-01-22T00:14:55.915Z,22.99
2024-01-22T00:15:55.916Z,23.00
2024-01-22T00:16:55.953Z,23.00
2024-01-22T00:17:56.089Z,23.00
2024-01-22T00:18:56.272Z,22.97
2024-01-22T00:19:56.250Z,23.03
2024-01-22T00:20:56.230Z,23.00
2024-01-22T00:21:56.273Z,23.02
2024-01-22T00:22:56.335Z,23.00
2024-01-22T00:23:56.414Z,22.97
2024-01-22T00:24:56.447Z,23.04
2024-01-22T00:25:56.502Z,23.05
2024-01-22T00:26:56.614Z,23.03
2024-01-22T00:27:56.736Z,22.99
2024-01-22T00:28:56.696Z,23.03
2024-01-22T00:29:56.777Z,23.02
2024-01-22T00:30:56.806Z,22.97
2024-01-22T00:31:56.845Z,23.00
2024-01-22T00:32:57.047Z,23.00
2024-01-22T00:33:57.043Z,23.03
2024-01-22T00:34:57.099Z,23.03
2024-01-22T00:35:57.116Z,23.02
2024-01-22T00:36:57.195Z,23.03
2024-01-22T00:37:57.268Z,22.97
2024-01-22T00:38:57.356Z,22.84
2024-01-22T00:39:57.375Z,22.94
2024-01-22T00:40:57.456Z,23.00
2024-01-22T00:41:57.518Z,22.93
2024-01-22T00:42:57.554Z,22.97
2024-01-22T00:43:57.608Z,22.99
2024-01-22T00:44:57.703Z,22.99
2024-01-22T00:45:57.697Z,23.02
2024-01-22T00:46:57.792Z,23.00
2024-01-22T00:47:57.892Z,23.00
2024-01-22T00:48:57.968Z,23.03
2024-01-22T00:49:57.976Z,22.97
2024-01-22T00:50:58.066Z,23.00
2024-01-22T00:51:58.098Z,23.00
2024-01-22T00:52:58.169Z,23.03
2024-01-22T00:53:58.297Z,23.03
2024-01-22T00:54:58.271Z,22.97
2024-01-22T00:55:58.347Z,23.02
2024-01-22T00:56:58.440Z,22.99
2024-01-22T00:57:58.446Z,23.06
2024-01-22T00:58:58.539Z,23.03
2024-01-22T00:59:58.690Z,22.99
2024-01-22T01:00:58.701Z,23.05
2024-01-22T01:01:58.753Z,22.99
2024-01-22T01:02:58.898Z,23.00
2024-01-22T01:03:58.877Z,22.94
2024-01-22T01:04:58.939Z,22.97
2024-01-22T01:05:58.990Z,22.93
2024-01-22T01:06:59.042Z,22.97
2024-01-22T01:07:59.108Z,22.99
2024-01-22T01:08:59.157Z,22.99
2024-01-22T01:09:59.188Z,22.96
2024-01-22T01:10:59.287Z,22.84
2024-01-22T01:11:59.394Z,22.96
2024-01-22T01:12:59.382Z,22.99
2024-01-22T01:13:59.431Z,22.99
2024-01-22T01:14:59.532Z,22.96
2024-01-22T01:15:59.579Z,22.88
2024-01-22T01:16:59.650Z,22.91
2024-01-22T01:17:59.847Z,22.97
2024-01-22T01:18:59.905Z,22.91
2024-01-22T01:19:59.841Z,22.96
2024-01-22T01:20:59.929Z,22.99
2024-01-22T01:21:59.955Z,22.97
2024-01-22T01:23:00.033Z,22.96
2024-01-22T01:24:00.156Z,23.00
2024-01-22T01:25:00.238Z,22.99
2024-01-22T01:26:00.233Z,22.96
2024-01-22T01:27:00.323Z,22.94
2024-01-22T01:28:00.411Z,22.93
2024-01-22T01:29:00.442Z,22.97
2024-01-22T01:30:00.619Z,22.97
2024-01-22T01:31:00.588Z,22.97
2024-01-22T01:32:00.659Z,22.99
2024-01-22T01:33:00.851Z,23.00
2024-01-22T01:34:00.938Z,22.94
2024-01-22T01:35:00.850Z,23.05
2024-01-22T01:36:00.931Z,22.97
2024-01-22T01:37:01.007Z,22.94
2024-01-22T01:38:01.077Z,22.96
2024-01-22T01:39:01.184Z,22.99
2024-01-22T01:40:01.268Z,22.97
2024-01-22T01:41:01.299Z,23.01
2024-01-22T01:42:01.438Z,22.99
2024-01-22T01:43:01.391Z,23.01
2024-01-22T01:44:01.476Z,22.97
2024-01-22T01:45:01.641Z,22.96
2024-01-22T01:46:01.666Z,22.94
2024-01-22T01:47:01.716Z,22.91
2024-01-22T01:48:01.882Z,22.94
2024-01-22T01:49:02.046Z,22.97
2024-01-22T01:50:01.942Z,22.99
2024-01-22T01:51:02.134Z,22.97
2024-01-22T01:52:02.067Z,22.97
2024-01-22T01:53:02.116Z,23.01
2024-01-22T01:54:02.230Z,22.89
2024-01-22T01:55:02.226Z,22.97
2024-01-22T01:56:02.332Z,22.93
2024-01-22T01:57:02.464Z,22.94
2024-01-22T01:58:05.846Z,22.96
2024-01-22T01:59:02.471Z,22.98
2024-01-22T02:00:02.681Z,23.00
2024-01-22T02:01:02.654Z,23.00
2024-01-22T02:02:02.471Z,23.00
2024-01-22T02:03:02.574Z,22.96
2024-01-22T02:04:02.514Z,22.96
2024-01-22T02:05:02.495Z,22.96
2024-01-22T02:06:02.575Z,22.97
2024-01-22T02:07:02.465Z,22.97
2024-01-22T02:08:02.493Z,22.94
2024-01-22T02:09:02.535Z,22.91
2024-01-22T02:10:02.466Z,22.93
2024-01-22T02:11:02.468Z,22.85
2024-01-22T02:12:02.542Z,23.00
2024-01-22T02:13:02.483Z,22.97
2024-01-22T02:14:02.473Z,23.00
2024-01-22T02:15:02.487Z,23.00
2024-01-22T02:16:02.511Z,22.99
2024-01-22T02:17:02.493Z,22.97
2024-01-22T02:18:02.668Z,23.01
2024-01-22T02:19:02.555Z,22.94
2024-01-22T02:20:02.477Z,23.00
2024-01-22T02:21:02.541Z,22.99
2024-01-22T02:22:02.589Z,22.99
2024-01-22T02:23:02.625Z,23.01
2024-01-22T02:24:02.742Z,23.03
2024-01-22T02:25:02.773Z,23.00
2024-01-22T02:26:02.834Z,22.99
2024-01-22T02:27:02.986Z,23.01
2024-01-22T02:28:03.193Z,23.03
2024-01-22T02:29:03.079Z,23.03
2024-01-22T02:30:03.142Z,23.03
2024-01-22T02:31:03.197Z,22.97
2024-01-22T02:32:03.275Z,22.97
2024-01-22T02:33:03.457Z,23.04
2024-01-22T02:34:03.585Z,23.00
2024-01-22T02:35:03.460Z,23.01
2024-01-22T02:36:04.224Z,23.04
2024-01-22T02:37:03.622Z,23.07
2024-01-22T02:38:03.686Z,23.05
2024-01-22T02:39:03.767Z,23.00
2024-01-22T02:40:03.787Z,23.05
2024-01-22T02:41:03.885Z,23.05
2024-01-22T02:42:03.996Z,23.05
2024-01-22T02:43:03.971Z,23.03
2024-01-22T02:44:04.061Z,23.04
2024-01-22T02:45:04.251Z,23.07
2024-01-22T02:46:04.187Z,23.04
2024-01-22T02:47:04.279Z,23.03
2024-01-22T02:48:04.460Z,23.03
2024-01-22T02:49:04.569Z,23.07
2024-01-22T02:50:04.484Z,23.05
2024-01-22T02:51:04.559Z,23.04
2024-01-22T02:52:04.632Z,22.97
2024-01-22T02:53:04.654Z,23.08
2024-01-22T02:54:04.835Z,23.07
2024-01-22T02:55:04.821Z,23.04
2024-01-22T02:56:04.900Z,23.04
2024-01-22T02:57:05.020Z,23.05
2024-01-22T02:58:05.036Z,23.11
2024-01-22T02:59:05.137Z,23.04
2024-01-22T03:00:05.255Z,23.10
2024-01-22T03:01:05.336Z,23.11
2024-01-22T03:02:05.329Z,23.13
2024-01-22T03:03:05.407Z,23.07
2024-01-22T03:04:05.501Z,23.08
2024-01-22T03:05:05.557Z,23.08
2024-01-22T03:06:05.677Z,23.08
2024-01-22T03:07:05.756Z,23.08
2024-01-22T03:08:05.726Z,23.04
2024-01-22T03:09:05.825Z,23.11
2024-01-22T03:10:06.607Z,23.07
2024-01-22T03:11:05.973Z,23.12
2024-01-22T03:12:06.111Z,23.08
2024-01-22T03:13:06.054Z,23.14
2024-01-22T03:14:06.158Z,23.08
2024-01-22T03:15:06.317Z,23.11
2024-01-22T03:16:06.325Z,23.10
2024-01-22T03:17:06.372Z,23.10
2024-01-22T03:18:06.521Z,23.11
2024-01-22T03:19:06.660Z,23.08
2024-01-22T03:20:06.574Z,23.10
2024-01-22T03:21:06.733Z,23.11
2024-01-22T03:22:06.709Z,23.12
2024-01-22T03:23:06.759Z,23.12
2024-01-22T03:24:06.851Z,23.15
2024-01-22T03:25:06.850Z,23.15
2024-01-22T03:26:06.955Z,23.08
2024-01-22T03:27:07.068Z,23.11
2024-01-22T03:28:07.044Z,23.10
2024-01-22T03:29:07.137Z,23.10
2024-01-22T03:30:07.283Z,23.10
2024-01-22T03:31:07.246Z,23.08
2024-01-22T03:32:07.317Z,23.11
2024-01-22T03:33:07.443Z,23.08
2024-01-22T03:34:07.537Z,23.08
2024-01-22T03:35:07.459Z,23.10
2024-01-22T03:36:07.543Z,23.10
2024-01-22T03:37:07.590Z,23.08
2024-01-22T03:38:07.629Z,23.08
2024-01-22T03:39:10.222Z,23.05
2024-01-22T03:40:07.713Z,23.05
2024-01-22T03:41:07.685Z,23.10
2024-01-22T03:42:07.740Z,23.05
2024-01-22T03:43:07.708Z,23.08
2024-01-22T03:44:07.685Z,23.07
2024-01-22T03:45:07.765Z,23.10
2024-01-22T03:46:07.718Z,23.10
2024-01-22T03:47:07.677Z,23.08
2024-01-22T03:48:07.794Z,23.08
2024-01-22T03:49:07.808Z,23.07
2024-01-22T03:50:07.765Z,23.07
2024-01-22T03:51:07.777Z,23.07
2024-01-22T03:52:07.719Z,23.07
2024-01-22T03:53:07.695Z,23.07
2024-01-22T03:54:07.740Z,23.10
2024-01-22T03:55:07.700Z,23.08
2024-01-22T03:56:07.727Z,23.08
2024-01-22T03:57:07.793Z,23.04
2024-01-22T03:58:07.737Z,23.03
2024-01-22T03:59:07.705Z,23.04
2024-01-22T04:00:07.757Z,23.08
2024-01-22T04:01:07.771Z,23.07
2024-01-22T04:02:07.713Z,23.05
2024-01-22T04:03:07.774Z,23.05
2024-01-22T04:04:07.755Z,23.04
2024-01-22T04:05:07.735Z,23.10
2024-01-22T04:06:07.833Z,23.07
2024-01-22T04:07:07.829Z,23.05
2024-01-22T04:08:07.723Z,23.03
2024-01-22T04:09:07.747Z,23.10
2024-01-22T04:10:07.724Z,23.04
2024-01-22T04:11:07.712Z,23.12
2024-01-22T04:12:07.771Z,23.07
2024-01-22T04:13:07.744Z,23.08
2024-01-22T04:14:07.769Z,23.07
2024-01-22T04:15:07.857Z,23.07
2024-01-22T04:16:07.913Z,23.04
2024-01-22T04:17:07.973Z,23.03
2024-01-22T04:18:08.218Z,23.07
2024-01-22T04:19:08.229Z,23.03
2024-01-22T04:20:08.212Z,23.07
2024-01-22T04:21:08.299Z,22.97
2024-01-22T04:22:08.333Z,23.00
2024-01-22T04:23:08.416Z,23.00
2024-01-22T04:24:08.576Z,22.94
2024-01-22T04:25:08.524Z,22.94
2024-01-22T04:26:08.570Z,22.92
2024-01-22T04:27:08.704Z,22.98
2024-01-22T04:28:08.694Z,22.86
2024-01-22T04:29:08.728Z,22.83
2024-01-22T04:30:08.835Z,22.90
2024-01-22T04:31:08.878Z,22.87
2024-01-22T04:32:09.006Z,22.78
2024-01-22T04:33:09.115Z,22.83
2024-01-22T04:34:09.086Z,22.80
2024-01-22T04:35:09.048Z,22.78
2024-01-22T04:36:09.168Z,22.77
2024-01-22T04:37:09.140Z,22.81
2024-01-22T04:38:09.209Z,22.78
2024-01-22T04:39:09.254Z,22.80
2024-01-22T04:40:09.287Z,22.79
2024-01-22T04:41:09.361Z,22.82
2024-01-22T04:42:09.422Z,22.72
2024-01-22T04:43:09.444Z,22.65
2024-01-22T04:44:09.471Z,22.50
2024-01-22T04:45:09.605Z,22.82
2024-01-22T04:46:09.532Z,22.68
2024-01-22T04:47:09.590Z,22.74
2024-01-22T04:48:16.981Z,22.76
2024-01-22T04:49:16.951Z,22.83
2024-01-22T04:50:16.911Z,22.79
2024-01-22T04:51:16.967Z,22.71
2024-01-22T04:52:16.931Z,22.71
2024-01-22T04:53:16.902Z,22.73
2024-01-22T04:54:16.957Z,22.68
2024-01-22T04:55:21.173Z,22.65
2024-01-22T04:56:17.921Z,22.62
2024-01-22T04:57:16.969Z,22.58
2024-01-22T04:58:16.956Z,22.54
2024-01-22T04:59:16.944Z,22.58
2024-01-22T05:00:16.957Z,22.62
2024-01-22T05:01:16.961Z,22.67
2024-01-22T05:02:16.925Z,22.54
2024-01-22T05:03:17.044Z,22.64
2024-01-22T05:04:16.993Z,22.58
2024-01-22T05:05:17.097Z,22.66
2024-01-22T05:06:17.037Z,22.88
2024-01-22T05:07:16.896Z,22.60
2024-01-22T05:08:16.925Z,22.69
2024-01-22T05:09:16.965Z,22.52
2024-01-22T05:10:16.947Z,22.48
2024-01-22T05:11:16.924Z,22.22
2024-01-22T05:12:16.952Z,22.42
2024-01-22T05:13:16.932Z,22.52
2024-01-22T05:14:16.910Z,22.67
2024-01-22T05:15:17.123Z,22.48
2024-01-22T05:16:16.916Z,22.63
2024-01-22T05:17:16.938Z,22.40
2024-01-22T05:18:17.568Z,22.46
2024-01-22T05:19:17.062Z,22.40
2024-01-22T05:20:16.969Z,22.62
2024-01-22T05:21:17.092Z,22.65
2024-01-22T05:22:17.032Z,22.33
2024-01-22T05:23:17.058Z,22.39
2024-01-22T05:24:17.173Z,22.50
2024-01-22T05:25:17.045Z,22.53
2024-01-22T05:26:17.083Z,22.13
2024-01-22T05:27:17.227Z,22.42
2024-01-22T05:28:17.135Z,22.60
2024-01-22T05:29:17.126Z,22.45
2024-01-22T05:30:17.280Z,22.43
2024-01-22T05:31:17.170Z,22.38
2024-01-22T05:32:17.203Z,22.40
2024-01-22T05:33:17.277Z,22.50
2024-01-22T05:34:17.334Z,22.45
2024-01-22T05:35:17.217Z,22.60
2024-01-22T05:36:17.352Z,22.63
2024-01-22T05:37:17.246Z,22.62
2024-01-22T05:38:17.281Z,22.47
2024-01-22T05:39:17.333Z,22.62
2024-01-22T05:40:17.264Z,22.22
2024-01-22T05:41:17.268Z,22.27
2024-01-22T05:42:17.335Z,22.44
2024-01-22T05:43:17.333Z,22.47
2024-01-22T05:44:18.017Z,22.44
2024-01-22T05:45:17.485Z,22.54
2024-01-22T05:46:17.319Z,22.43
2024-01-22T05:47:17.336Z,22.63
2024-01-22T05:48:17.550Z,22.44
2024-01-22T05:49:17.477Z,22.39
2024-01-22T05:50:17.350Z,22.45
2024-01-22T05:51:17.485Z,22.63
2024-01-22T05:52:17.412Z,22.68
2024-01-22T05:53:17.452Z,23.11
2024-01-22T05:54:17.422Z,24.43
2024-01-22T05:55:19.483Z,24.71
2024-01-22T05:56:17.495Z,25.36
2024-01-22T05:57:17.581Z,25.78
2024-01-22T05:58:17.582Z,25.89
2024-01-22T05:59:17.613Z,26.83
2024-01-22T06:00:17.737Z,27.53
2024-01-22T06:01:18.781Z,27.80
2024-01-22T06:02:17.799Z,28.00
2024-01-22T06:03:17.946Z,28.45
2024-01-22T06:04:17.994Z,28.74
2024-01-22T06:05:17.941Z,29.21
2024-01-22T06:06:18.059Z,29.45
2024-01-22T06:07:18.133Z,29.42
2024-01-22T06:08:18.096Z,30.01
2024-01-22T06:09:18.251Z,30.01
2024-01-22T06:10:18.300Z,30.55
2024-01-22T06:11:18.199Z,30.77
2024-01-22T06:12:18.305Z,31.14
2024-01-22T06:13:18.260Z,31.36
2024-01-22T06:14:18.288Z,31.53
2024-01-22T06:15:18.382Z,31.80
2024-01-22T06:16:18.332Z,31.58
2024-01-22T06:17:18.374Z,31.99
2024-01-22T06:18:18.442Z,32.01
2024-01-22T06:19:18.465Z,32.15
2024-01-22T06:20:18.441Z,32.32
2024-01-22T06:21:18.497Z,32.89
2024-01-22T06:22:18.605Z,32.86
2024-01-22T06:23:18.570Z,33.03
2024-01-22T06:24:18.748Z,32.89
2024-01-22T06:25:18.575Z,33.41
2024-01-22T06:26:18.865Z,32.87
2024-01-22T06:27:18.806Z,33.45
2024-01-22T06:28:18.635Z,33.55
2024-01-22T06:29:18.613Z,33.48
2024-01-22T06:30:18.707Z,31.97
2024-01-22T06:31:18.758Z,32.57
2024-01-22T06:32:18.802Z,33.83
2024-01-22T06:33:18.879Z,33.48
2024-01-22T06:34:19.025Z,32.84
2024-01-22T06:35:18.764Z,32.14
2024-01-22T06:36:19.000Z,30.25
2024-01-22T06:37:18.890Z,31.93
2024-01-22T06:38:18.945Z,31.72
2024-01-22T06:39:19.155Z,31.63
2024-01-22T06:40:19.079Z,32.42
2024-01-22T06:41:19.149Z,34.17
2024-01-22T06:42:27.465Z,33.69
2024-01-22T06:43:20.233Z,32.12
2024-01-22T06:44:21.122Z,31.97
2024-01-22T06:45:19.259Z,33.51
2024-01-22T06:46:19.235Z,34.17
2024-01-22T06:47:19.223Z,32.92
2024-01-22T06:48:19.369Z,33.58
2024-01-22T06:49:19.498Z,34.75
2024-01-22T06:50:19.281Z,35.40
2024-01-22T06:51:27.011Z,35.99
2024-01-22T06:52:20.255Z,35.95
2024-01-22T06:53:19.257Z,34.12
2024-01-22T06:54:20.857Z,35.97
2024-01-22T06:55:19.219Z,37.06
2024-01-22T06:56:19.220Z,33.06
2024-01-22T06:57:19.368Z,32.75
2024-01-22T06:58:19.227Z,32.99
2024-01-22T06:59:19.241Z,34.16
2024-01-22T07:00:19.275Z,33.91
2024-01-22T07:01:19.282Z,33.81
2024-01-22T07:02:19.246Z,35.74
2024-01-22T07:03:19.267Z,35.56
2024-01-22T07:04:19.296Z,38.24
2024-01-22T07:05:19.308Z,37.71
2024-01-22T07:06:22.231Z,37.62
2024-01-22T07:07:19.256Z,37.35
2024-01-22T07:08:19.279Z,37.36
2024-01-22T07:09:19.284Z,37.19
2024-01-22T07:10:19.257Z,37.40
2024-01-22T07:11:19.258Z,36.91
2024-01-22T07:12:19.317Z,37.45
2024-01-22T07:13:19.277Z,37.66
2024-01-22T07:14:19.263Z,37.57
2024-01-22T07:15:19.461Z,37.77
2024-01-22T07:16:19.254Z,37.94
2024-01-22T07:17:19.248Z,38.01
2024-01-22T07:18:19.483Z,36.66
2024-01-22T07:19:19.445Z,37.24
2024-01-22T07:20:19.273Z,37.65
2024-01-22T07:21:19.427Z,37.39
2024-01-22T07:22:19.285Z,38.28
2024-01-22T07:23:19.288Z,38.01
2024-01-22T07:24:19.362Z,38.62
2024-01-22T07:25:19.266Z,37.79
2024-01-22T07:26:19.252Z,37.37
2024-01-22T07:27:19.324Z,37.73
2024-01-22T07:28:19.599Z,38.75
2024-01-22T07:29:19.288Z,38.43
2024-01-22T07:30:19.330Z,37.67
2024-01-22T07:31:19.305Z,37.46
2024-01-22T07:32:19.269Z,38.91
2024-01-22T07:33:19.392Z,38.02
2024-01-22T07:34:19.443Z,37.80
2024-01-22T07:35:19.361Z,38.72
2024-01-22T07:36:19.529Z,38.95
2024-01-22T07:37:19.548Z,38.20
2024-01-22T07:38:19.527Z,37.73
2024-01-22T07:39:19.649Z,37.49
2024-01-22T07:40:19.644Z,37.43
2024-01-22T07:41:19.692Z,37.46
2024-01-22T07:42:19.753Z,37.57
2024-01-22T07:43:19.733Z,37.38
2024-01-22T07:44:19.738Z,37.44
2024-01-22T07:45:20.941Z,37.17
2024-01-22T07:46:19.851Z,39.15
2024-01-22T07:47:21.568Z,39.47
2024-01-22T07:48:19.934Z,40.86
2024-01-22T07:49:19.957Z,39.99
2024-01-22T07:50:19.831Z,40.04
2024-01-22T07:51:19.946Z,39.91
2024-01-22T07:52:19.842Z,39.76
2024-01-22T07:53:19.830Z,37.30
2024-01-22T07:54:19.849Z,36.70
2024-01-22T07:55:19.931Z,37.98
2024-01-22T07:56:19.837Z,36.56
2024-01-22T07:57:19.896Z,37.95
2024-01-22T07:58:19.843Z,38.08
2024-01-22T07:59:19.863Z,39.35
2024-01-22T08:00:19.868Z,38.57
2024-01-22T08:01:19.909Z,37.89
2024-01-22T08:02:19.860Z,38.10
2024-01-22T08:03:19.920Z,38.31
2024-01-22T08:04:19.883Z,38.38
2024-01-22T08:05:19.856Z,38.35
2024-01-22T08:06:19.899Z,38.20
2024-01-22T08:07:20.895Z,38.13
2024-01-22T08:08:19.845Z,38.22
2024-01-22T08:09:19.948Z,38.02
2024-01-22T08:10:19.849Z,37.97
2024-01-22T08:11:19.848Z,38.00
2024-01-22T08:12:19.951Z,37.97
2024-01-22T08:13:19.833Z,38.18
2024-01-22T08:14:19.836Z,38.21
2024-01-22T08:15:19.874Z,38.21
2024-01-22T08:16:19.889Z,38.26
2024-01-22T08:17:19.873Z,37.97
2024-01-22T08:18:19.964Z,38.11
2024-01-22T08:19:19.976Z,38.21
2024-01-22T08:20:20.432Z,38.18
2024-01-22T08:21:19.965Z,38.22
2024-01-22T08:22:19.876Z,38.17
2024-01-22T08:23:19.853Z,38.23
2024-01-22T08:24:19.914Z,38.05
2024-01-22T08:25:19.869Z,37.35
2024-01-22T08:26:19.844Z,37.88
2024-01-22T08:27:19.965Z,37.90
2024-01-22T08:28:19.978Z,38.40
2024-01-22T08:29:20.045Z,38.16
2024-01-22T08:30:20.166Z,38.24
2024-01-22T08:31:21.100Z,38.21
2024-01-22T08:32:20.181Z,38.11
2024-01-22T08:33:20.477Z,37.91
2024-01-22T08:34:20.440Z,38.25
2024-01-22T08:35:20.607Z,38.46
2024-01-22T08:36:20.481Z,38.47
2024-01-22T08:37:20.514Z,38.34
2024-01-22T08:38:20.579Z,38.61
2024-01-22T08:39:20.711Z,38.77
2024-01-22T08:40:20.723Z,39.14
2024-01-22T08:41:20.796Z,39.71
2024-01-22T08:42:20.854Z,39.46
2024-01-22T08:43:20.831Z,39.17
2024-01-22T08:44:20.768Z,40.05
2024-01-22T08:45:20.893Z,40.34
2024-01-22T08:46:20.915Z,39.97
2024-01-22T08:47:21.012Z,41.52
2024-01-22T08:48:21.164Z,39.37
2024-01-22T08:49:21.184Z,38.06
2024-01-22T08:50:21.209Z,39.88
2024-01-22T08:51:21.295Z,38.67
2024-01-22T08:52:21.340Z,39.20
2024-01-22T08:53:21.423Z,38.65
2024-01-22T08:54:21.595Z,38.11
2024-01-22T08:55:21.534Z,38.25
2024-01-22T08:56:21.627Z,37.21
2024-01-22T08:57:21.748Z,38.41
2024-01-22T08:58:21.789Z,38.43
2024-01-22T08:59:21.804Z,38.33
2024-01-22T09:00:21.998Z,38.39
2024-01-22T09:01:22.009Z,38.53
2024-01-22T09:02:22.009Z,38.96
2024-01-22T09:03:22.090Z,39.19
2024-01-22T09:04:22.180Z,39.32
2024-01-22T09:05:22.273Z,39.46
2024-01-22T09:06:22.305Z,39.39
2024-01-22T09:07:22.328Z,39.42
2024-01-22T09:08:22.393Z,39.07
2024-01-22T09:09:22.528Z,39.26
2024-01-22T09:10:22.527Z,39.67
2024-01-22T09:11:22.622Z,39.10
2024-01-22T09:12:22.746Z,39.16
2024-01-22T09:13:22.749Z,39.60
2024-01-22T09:14:22.806Z,39.68
2024-01-22T09:15:22.933Z,39.93
2024-01-22T09:16:22.967Z,40.12
2024-01-22T09:17:22.996Z,40.01
2024-01-22T09:18:23.183Z,39.96
2024-01-22T09:19:23.183Z,40.10
2024-01-22T09:20:23.212Z,40.44
2024-01-22T09:21:23.244Z,40.47
2024-01-22T09:22:23.281Z,40.80
2024-01-22T09:23:23.423Z,40.66
2024-01-22T09:24:23.413Z,40.42
2024-01-22T09:25:23.480Z,40.48
2024-01-22T09:26:23.543Z,40.43
2024-01-22T09:27:23.633Z,40.55
2024-01-22T09:28:23.689Z,40.65
2024-01-22T09:29:23.749Z,40.67
2024-01-22T09:30:23.834Z,40.71
2024-01-22T09:31:23.831Z,40.90
2024-01-22T09:32:23.974Z,41.00
2024-01-22T09:33:24.021Z,40.97
2024-01-22T09:34:24.146Z,41.05
2024-01-22T09:35:24.131Z,42.32
2024-01-22T09:36:24.177Z,42.63
2024-01-22T09:37:24.236Z,42.65
2024-01-22T09:38:24.329Z,42.83
2024-01-22T09:39:24.370Z,43.55
2024-01-22T09:40:28.452Z,43.27
2024-01-22T09:41:25.466Z,44.57
2024-01-22T09:42:24.479Z,44.21
2024-01-22T09:43:24.431Z,44.84
2024-01-22T09:44:24.410Z,43.92
2024-01-22T09:45:24.427Z,44.46
2024-01-22T09:46:24.422Z,44.37
2024-01-22T09:47:24.432Z,44.34
2024-01-22T09:48:24.495Z,45.42
2024-01-22T09:49:24.620Z,45.48
2024-01-22T09:50:24.421Z,45.87
2024-01-22T09:51:24.457Z,46.52
2024-01-22T09:52:31.106Z,45.22
2024-01-22T09:53:24.481Z,45.15
2024-01-22T09:54:24.520Z,44.80
2024-01-22T09:55:24.430Z,44.35
2024-01-22T09:56:24.438Z,44.32
2024-01-22T09:57:24.513Z,44.06
2024-01-22T09:58:24.420Z,43.80
2024-01-22T09:59:24.409Z,43.45
2024-01-22T10:00:24.422Z,43.17
2024-01-22T10:01:24.429Z,41.63
2024-01-22T10:02:24.462Z,41.02
2024-01-22T10:03:24.752Z,41.76
2024-01-22T10:04:24.505Z,39.92
2024-01-22T10:05:24.564Z,41.11
2024-01-22T10:06:24.487Z,41.58
2024-01-22T10:07:24.425Z,41.39
2024-01-22T10:08:24.435Z,42.20
2024-01-22T10:09:24.534Z,40.88
2024-01-22T10:10:24.466Z,40.27
2024-01-22T10:11:24.435Z,39.24
2024-01-22T10:12:24.457Z,38.79
2024-01-22T10:13:24.445Z,39.51
2024-01-22T10:14:24.458Z,39.49
2024-01-22T10:15:24.602Z,39.96
2024-01-22T10:16:24.445Z,40.01
2024-01-22T10:17:24.504Z,40.04
2024-01-22T10:18:24.525Z,40.75
2024-01-22T10:19:24.544Z,40.62
2024-01-22T10:20:24.463Z,40.25
2024-01-22T10:21:24.603Z,40.06
2024-01-22T10:22:24.435Z,39.72
2024-01-22T10:23:24.479Z,39.26
2024-01-22T10:24:24.507Z,39.34
2024-01-22T10:25:24.467Z,39.29
2024-01-22T10:26:24.460Z,39.74
2024-01-22T10:27:24.557Z,39.68
2024-01-22T10:28:24.454Z,40.10
2024-01-22T10:29:24.463Z,39.73
2024-01-22T10:30:24.536Z,39.46
2024-01-22T10:31:24.424Z,39.26
2024-01-22T10:32:24.455Z,39.51
2024-01-22T10:33:24.625Z,40.01
2024-01-22T10:34:24.525Z,40.11
2024-01-22T10:35:24.457Z,39.57
2024-01-22T10:36:24.513Z,39.51
2024-01-22T10:37:24.441Z,40.44
2024-01-22T10:38:24.485Z,40.60
2024-01-22T10:39:24.502Z,39.72
2024-01-22T10:40:24.459Z,40.66
2024-01-22T10:41:24.484Z,41.53
2024-01-22T10:42:24.517Z,40.71
2024-01-22T10:43:24.488Z,41.60
2024-01-22T10:44:24.468Z,42.48
2024-01-22T10:45:24.669Z,41.76
2024-01-22T10:46:24.500Z,43.17
2024-01-22T10:47:24.502Z,43.44
2024-01-22T10:48:32.349Z,42.09
2024-01-22T10:49:25.593Z,41.65
2024-01-22T10:50:24.645Z,43.35
2024-01-22T10:51:24.516Z,42.70
2024-01-22T10:52:24.463Z,41.44
2024-01-22T10:53:24.491Z,40.89
2024-01-22T10:54:24.503Z,40.73
2024-01-22T10:55:24.568Z,39.75
2024-01-22T10:56:24.463Z,39.44
2024-01-22T10:57:24.507Z,39.01
2024-01-22T10:58:24.494Z,40.03
2024-01-22T10:59:24.462Z,40.14
2024-01-22T11:00:24.495Z,40.31
2024-01-22T11:01:24.626Z,39.97
2024-01-22T11:02:24.474Z,40.90
2024-01-22T11:03:24.526Z,41.81
2024-01-22T11:04:24.533Z,40.78
2024-01-22T11:05:24.540Z,41.83
2024-01-22T11:06:24.634Z,41.33
2024-01-22T11:07:24.481Z,41.99
2024-01-22T11:08:24.516Z,42.07
2024-01-22T11:09:24.554Z,41.68
2024-01-22T11:10:24.482Z,40.94
2024-01-22T11:11:24.509Z,41.33
2024-01-22T11:12:24.532Z,40.63
2024-01-22T11:13:24.512Z,41.93
2024-01-22T11:14:24.483Z,40.93
2024-01-22T11:15:24.567Z,41.03
2024-01-22T11:16:24.656Z,43.18
2024-01-22T11:17:24.516Z,40.52
2024-01-22T11:18:24.616Z,41.35
2024-01-22T11:19:24.670Z,41.16
2024-01-22T11:20:24.561Z,41.91
2024-01-22T11:21:24.625Z,41.22
2024-01-22T11:22:24.729Z,41.70
2024-01-22T11:23:24.798Z,42.50
2024-01-22T11:24:24.938Z,40.97
2024-01-22T11:25:24.896Z,41.20
2024-01-22T11:26:24.985Z,43.22
2024-01-22T11:27:25.122Z,43.26
2024-01-22T11:28:25.124Z,42.19
2024-01-22T11:29:25.163Z,41.54
2024-01-22T11:30:25.311Z,43.71
2024-01-22T11:31:25.269Z,44.01
2024-01-22T11:32:25.400Z,43.91
2024-01-22T11:33:25.652Z,41.82
2024-01-22T11:34:25.510Z,42.58
2024-01-22T11:35:25.819Z,42.82
2024-01-22T11:36:25.698Z,43.70
2024-01-22T11:37:25.671Z,43.36
2024-01-22T11:38:25.725Z,44.42
2024-01-22T11:39:25.833Z,44.20
2024-01-22T11:40:25.811Z,43.85
2024-01-22T11:41:25.880Z,40.38
2024-01-22T11:42:25.931Z,41.92
2024-01-22T11:43:25.991Z,42.46
2024-01-22T11:44:25.989Z,42.46
2024-01-22T11:45:30.233Z,42.12
2024-01-22T11:46:27.061Z,42.24
2024-01-22T11:47:26.074Z,42.14
2024-01-22T11:48:26.107Z,41.96
2024-01-22T11:49:26.059Z,40.35
2024-01-22T11:50:26.056Z,40.80
2024-01-22T11:51:26.044Z,41.18
2024-01-22T11:52:26.097Z,41.74
2024-01-22T11:53:26.021Z,41.53
2024-01-22T11:54:27.119Z,41.67
2024-01-22T11:55:26.013Z,41.78
2024-01-22T11:56:26.027Z,42.83
2024-01-22T11:57:26.151Z,41.10
2024-01-22T11:58:26.062Z,41.51
2024-01-22T11:59:26.083Z,42.40
2024-01-22T12:00:26.335Z,42.05
2024-01-22T12:01:26.206Z,41.91
2024-01-22T12:02:26.233Z,41.89
2024-01-22T12:03:26.489Z,40.74
2024-01-22T12:04:26.351Z,41.43
2024-01-22T12:05:26.380Z,40.93
2024-01-22T12:06:26.473Z,41.41
2024-01-22T12:07:26.468Z,41.61
2024-01-22T12:08:26.516Z,41.50
2024-01-22T12:09:26.725Z,41.64
2024-01-22T12:10:26.833Z,41.76
2024-01-22T12:11:26.651Z,40.77
2024-01-22T12:12:26.752Z,41.09
2024-01-22T12:13:26.779Z,41.91
2024-01-22T12:14:26.827Z,42.26
2024-01-22T12:15:27.042Z,42.08
2024-01-22T12:16:26.919Z,41.99
2024-01-22T12:17:26.944Z,42.10
2024-01-22T12:18:27.117Z,42.18
2024-01-22T12:19:27.030Z,42.20
2024-01-22T12:20:27.114Z,42.03
2024-01-22T12:21:27.114Z,42.72
2024-01-22T12:22:27.097Z,42.68
2024-01-22T12:23:27.167Z,41.97
2024-01-22T12:24:27.150Z,42.68
2024-01-22T12:25:27.140Z,43.79
2024-01-22T12:26:27.116Z,43.67
2024-01-22T12:27:27.184Z,44.10
2024-01-22T12:28:27.176Z,43.48
2024-01-22T12:29:27.567Z,43.32
2024-01-22T12:30:27.208Z,44.92
2024-01-22T12:31:27.141Z,44.48
2024-01-22T12:32:27.158Z,44.54
2024-01-22T12:33:28.985Z,44.02
2024-01-22T12:34:27.382Z,44.13
2024-01-22T12:35:27.377Z,44.40
2024-01-22T12:36:27.498Z,43.59
2024-01-22T12:37:27.450Z,43.87
2024-01-22T12:38:27.441Z,41.76
2024-01-22T12:39:27.508Z,41.27
2024-01-22T12:40:27.566Z,43.44
2024-01-22T12:41:27.465Z,42.48
2024-01-22T12:42:27.507Z,41.52
2024-01-22T12:43:27.500Z,42.17
2024-01-22T12:44:27.508Z,40.66
2024-01-22T12:45:27.714Z,39.85
2024-01-22T12:46:27.559Z,39.52
2024-01-22T12:47:27.864Z,41.89
2024-01-22T12:48:27.745Z,40.72
2024-01-22T12:49:27.765Z,39.17
2024-01-22T12:50:27.691Z,38.96
2024-01-22T12:51:28.278Z,40.28
2024-01-22T12:52:27.738Z,41.41
2024-01-22T12:53:28.468Z,39.11